createdAt,value
2024-03-24T00:00:06.798Z,24.19
2024-03-24T00:01:06.882Z,24.31
2024-03-24T00:02:06.943Z,24.36
2024-03-24T00:03:07.046Z,24.32
2024-03-24T00:04:07.197Z,24.34
2024-03-24T00:05:07.259Z,24.29
2024-03-24T00:06:07.314Z,24.27
2024-03-24T00:07:07.449Z,24.20
2024-03-24T00:08:07.475Z,24.21
2024-03-24T00:09:07.558Z,24.19
2024-03-24T00:10:07.683Z,24.20
2024-03-24T00:11:07.866Z,24.16
2024-03-24T00:12:07.838Z,24.13
2024-03-24T00:13:07.952Z,24.12
2024-03-24T00:14:07.988Z,24.07
2024-03-24T00:15:08.096Z,24.07
2024-03-24T00:16:08.171Z,24.09
2024-03-24T00:17:08.243Z,24.08
2024-03-24T00:18:08.322Z,24.07
2024-03-24T00:19:08.419Z,24.07
2024-03-24T00:20:08.494Z,24.07
2024-03-24T00:21:08.551Z,24.09
2024-03-24T00:22:08.667Z,24.10
2024-03-24T00:23:08.724Z,24.12
2024-03-24T00:24:08.767Z,24.13
2024-03-24T00:25:08.893Z,24.13
2024-03-24T00:26:08.936Z,24.12
2024-03-24T00:27:09.018Z,24.13
2024-03-24T00:28:09.109Z,24.14
2024-03-24T00:29:09.167Z,24.13
2024-03-24T00:30:09.232Z,24.13
2024-03-24T00:31:09.376Z,24.19
2024-03-24T00:32:09.438Z,24.19
2024-03-24T00:33:09.478Z,24.13
2024-03-24T00:34:09.590Z,24.14
2024-03-24T00:35:09.650Z,24.13
2024-03-24T00:36:09.730Z,24.14
2024-03-24T00:37:09.860Z,24.19
2024-03-24T00:38:09.888Z,24.25
2024-03-24T00:39:09.980Z,24.22
2024-03-24T00:40:10.099Z,24.15
2024-03-24T00:41:10.110Z,24.14
2024-03-24T00:42:10.225Z,24.13
2024-03-24T00:43:10.321Z,24.13
2024-03-24T00:44:10.392Z,24.20
2024-03-24T00:45:10.450Z,24.14
2024-03-24T00:46:10.526Z,24.10
2024-03-24T00:47:10.612Z,24.08
2024-03-24T00:48:10.681Z,24.11
2024-03-24T00:49:10.777Z,24.09
2024-03-24T00:50:10.844Z,24.07
2024-03-24T00:51:10.952Z,24.13
2024-03-24T00:52:11.010Z,24.19
2024-03-24T00:53:11.076Z,24.18
2024-03-24T00:54:11.156Z,24.14
2024-03-24T00:55:11.243Z,24.16
2024-03-24T00:56:11.322Z,24.09
2024-03-24T00:57:11.405Z,24.11
2024-03-24T00:58:11.520Z,24.14
2024-03-24T00:59:11.573Z,24.10
2024-03-24T01:00:11.677Z,24.12
2024-03-24T01:01:11.814Z,24.14
2024-03-24T01:02:11.848Z,24.08
2024-03-24T01:03:11.971Z,24.08
2024-03-24T01:04:12.004Z,24.04
2024-03-24T01:05:12.123Z,24.04
2024-03-24T01:06:12.181Z,24.05
2024-03-24T01:07:12.268Z,24.05
2024-03-24T01:08:12.362Z,24.09
2024-03-24T01:09:12.461Z,24.06
2024-03-24T01:10:12.555Z,24.02
2024-03-24T01:11:12.629Z,24.04
2024-03-24T01:12:12.679Z,24.04
2024-03-24T01:13:12.789Z,24.06
2024-03-24T01:14:12.899Z,24.12
2024-03-24T01:15:12.969Z,24.22
2024-03-24T01:16:13.059Z,24.21
2024-03-24T01:17:13.137Z,24.14
2024-03-24T01:18:13.230Z,24.14
2024-03-24T01:19:13.305Z,24.08
2024-03-24T01:20:13.403Z,24.08
2024-03-24T01:21:13.510Z,24.07
2024-03-24T01:22:13.564Z,24.02
2024-03-24T01:23:13.642Z,24.01
2024-03-24T01:24:13.706Z,24.03
2024-03-24T01:25:13.851Z,24.02
2024-03-24T01:26:13.903Z,24.03
2024-03-24T01:27:13.987Z,24.02
2024-03-24T01:28:14.058Z,24.00
2024-03-24T01:29:14.146Z,23.99
2024-03-24T01:30:14.242Z,23.99
2024-03-24T01:31:14.293Z,24.03
2024-03-24T01:32:14.392Z,24.04
2024-03-24T01:33:14.515Z,23.97
2024-03-24T01:34:14.588Z,23.94
2024-03-24T01:35:14.665Z,23.93
2024-03-24T01:36:14.743Z,23.95
2024-03-24T01:37:14.810Z,23.94
2024-03-24T01:38:14.908Z,23.97
2024-03-24T01:39:14.974Z,23.98
2024-03-24T01:40:15.140Z,24.01
2024-03-24T01:41:15.194Z,23.97
2024-03-24T01:42:15.291Z,23.93
2024-03-24T01:43:15.368Z,23.97
2024-03-24T01:44:15.441Z,23.99
2024-03-24T01:45:15.521Z,23.99
2024-03-24T01:46:15.695Z,23.99
2024-03-24T01:47:15.721Z,24.00
2024-03-24T01:48:15.832Z,23.99
2024-03-24T01:49:15.902Z,24.07
2024-03-24T01:50:16.000Z,24.03
2024-03-24T01:51:16.055Z,24.05
2024-03-24T01:52:16.178Z,24.05
2024-03-24T01:53:16.290Z,24.04
2024-03-24T01:54:16.369Z,24.04
2024-03-24T01:55:16.465Z,24.13
2024-03-24T01:56:16.515Z,24.12
2024-03-24T01:57:16.610Z,24.10
2024-03-24T01:58:16.710Z,24.11
2024-03-24T01:59:16.789Z,24.08
2024-03-24T02:00:16.864Z,24.06
2024-03-24T02:01:16.950Z,24.05
2024-03-24T02:02:17.056Z,23.97
2024-03-24T02:03:17.109Z,23.96
2024-03-24T02:04:17.178Z,23.96
2024-03-24T02:05:17.286Z,23.96
2024-03-24T02:06:17.348Z,23.97
2024-03-24T02:07:17.453Z,23.97
2024-03-24T02:08:17.562Z,23.97
2024-03-24T02:09:17.608Z,23.97
2024-03-24T02:10:17.683Z,23.96
2024-03-24T02:11:17.772Z,23.97
2024-03-24T02:12:17.898Z,23.96
2024-03-24T02:13:18.029Z,24.02
2024-03-24T02:14:18.120Z,23.98
2024-03-24T02:15:18.196Z,23.98
2024-03-24T02:16:18.271Z,23.98
2024-03-24T02:17:18.347Z,23.97
2024-03-24T02:18:18.495Z,23.95
2024-03-24T02:19:18.545Z,23.93
2024-03-24T02:20:18.629Z,23.93
2024-03-24T02:21:18.723Z,23.93
2024-03-24T02:22:18.829Z,23.94
2024-03-24T02:23:18.880Z,23.93
2024-03-24T02:24:18.993Z,23.93
2024-03-24T02:25:19.058Z,23.91
2024-03-24T02:26:19.134Z,23.89
2024-03-24T02:27:19.224Z,23.90
2024-03-24T02:28:19.349Z,23.90
2024-03-24T02:29:19.434Z,23.91
2024-03-24T02:30:19.495Z,23.90
2024-03-24T02:31:19.574Z,23.97
2024-03-24T02:32:19.654Z,23.94
2024-03-24T02:33:19.772Z,23.92
2024-03-24T02:34:19.841Z,23.92
2024-03-24T02:35:19.911Z,24.00
2024-03-24T02:36:20.000Z,23.96
2024-03-24T02:37:20.065Z,23.94
2024-03-24T02:38:20.159Z,23.89
2024-03-24T02:39:20.250Z,23.95
2024-03-24T02:40:20.378Z,23.97
2024-03-24T02:41:20.418Z,24.00
2024-03-24T02:42:20.496Z,24.00
2024-03-24T02:43:20.584Z,23.97
2024-03-24T02:44:20.695Z,23.99
2024-03-24T02:45:20.772Z,23.95
2024-03-24T02:46:20.852Z,23.96
2024-03-24T02:47:21.480Z,23.95
2024-03-24T02:48:21.022Z,23.94
2024-03-24T02:49:21.092Z,23.92
2024-03-24T02:50:21.213Z,23.95
2024-03-24T02:51:21.250Z,24.01
2024-03-24T02:52:21.363Z,24.00
2024-03-24T02:53:21.439Z,23.97
2024-03-24T02:54:21.514Z,23.96
2024-03-24T02:55:21.607Z,23.92
2024-03-24T02:56:21.667Z,23.93
2024-03-24T02:57:21.724Z,23.95
2024-03-24T02:58:21.952Z,23.95
2024-03-24T02:59:21.917Z,23.96
2024-03-24T03:00:22.051Z,23.97
2024-03-24T03:01:22.106Z,23.95
2024-03-24T03:02:22.169Z,23.94
2024-03-24T03:03:22.295Z,23.97
2024-03-24T03:04:22.383Z,23.96
2024-03-24T03:05:22.447Z,23.95
2024-03-24T03:06:22.545Z,23.95
2024-03-24T03:07:22.673Z,23.94
2024-03-24T03:08:22.745Z,23.95
2024-03-24T03:09:22.796Z,23.98
2024-03-24T03:10:22.920Z,23.96
2024-03-24T03:11:22.999Z,23.97
2024-03-24T03:12:23.090Z,24.00
2024-03-24T03:13:23.214Z,23.96
2024-03-24T03:14:23.245Z,23.97
2024-03-24T03:15:23.335Z,23.94
2024-03-24T03:16:23.432Z,23.93
2024-03-24T03:17:23.626Z,23.96
2024-03-24T03:18:23.644Z,23.94
2024-03-24T03:19:23.727Z,23.92
2024-03-24T03:20:23.794Z,24.00
2024-03-24T03:21:23.885Z,23.98
2024-03-24T03:22:23.958Z,23.92
2024-03-24T03:23:24.070Z,23.92
2024-03-24T03:24:24.131Z,23.91
2024-03-24T03:25:24.240Z,23.92
2024-03-24T03:26:24.280Z,23.93
2024-03-24T03:27:24.473Z,23.92
2024-03-24T03:28:24.465Z,23.91
2024-03-24T03:29:24.545Z,23.87
2024-03-24T03:30:24.635Z,23.86
2024-03-24T03:31:24.708Z,23.85
2024-03-24T03:32:24.860Z,23.93
2024-03-24T03:33:24.976Z,23.92
2024-03-24T03:34:24.939Z,23.90
2024-03-24T03:35:25.038Z,23.89
2024-03-24T03:36:25.121Z,23.89
2024-03-24T03:37:25.170Z,23.87
2024-03-24T03:38:25.263Z,23.86
2024-03-24T03:39:25.331Z,23.83
2024-03-24T03:40:25.411Z,23.85
2024-03-24T03:41:25.510Z,23.84
2024-03-24T03:42:25.583Z,23.90
2024-03-24T03:43:25.676Z,23.92
2024-03-24T03:44:25.759Z,23.89
2024-03-24T03:45:25.813Z,23.87
2024-03-24T03:46:25.896Z,23.87
2024-03-24T03:47:25.990Z,23.86
2024-03-24T03:48:26.201Z,23.95
2024-03-24T03:49:26.164Z,23.92
2024-03-24T03:50:26.222Z,23.89
2024-03-24T03:51:26.312Z,23.88
2024-03-24T03:52:26.465Z,23.87
2024-03-24T03:53:26.568Z,23.85
2024-03-24T03:54:26.631Z,23.85
2024-03-24T03:55:26.728Z,23.85
2024-03-24T03:56:26.818Z,23.82
2024-03-24T03:57:26.922Z,23.83
2024-03-24T03:58:26.968Z,23.81
2024-03-24T03:59:27.052Z,23.79
2024-03-24T04:00:27.134Z,23.79
2024-03-24T04:01:27.188Z,23.82
2024-03-24T04:02:27.298Z,23.82
2024-03-24T04:03:27.492Z,23.85
2024-03-24T04:04:27.447Z,23.85
2024-03-24T04:05:27.526Z,23.79
2024-03-24T04:06:27.622Z,23.75
2024-03-24T04:07:27.745Z,23.74
2024-03-24T04:08:27.770Z,23.75
2024-03-24T04:09:27.863Z,23.80
2024-03-24T04:10:27.910Z,23.77
2024-03-24T04:11:27.993Z,23.88
2024-03-24T04:12:28.080Z,23.81
2024-03-24T04:13:28.163Z,23.81
2024-03-24T04:14:28.236Z,23.85
2024-03-24T04:15:28.307Z,23.84
2024-03-24T04:16:28.398Z,23.83
2024-03-24T04:17:28.589Z,23.77
2024-03-24T04:18:28.570Z,23.81
2024-03-24T04:19:28.650Z,23.82
2024-03-24T04:20:28.743Z,23.86
2024-03-24T04:21:28.840Z,23.85
2024-03-24T04:22:28.919Z,23.92
2024-03-24T04:23:29.004Z,23.87
2024-03-24T04:24:29.062Z,23.87
2024-03-24T04:25:29.171Z,23.78
2024-03-24T04:26:29.246Z,23.72
2024-03-24T04:27:29.323Z,23.73
2024-03-24T04:28:29.400Z,23.76
2024-03-24T04:29:29.461Z,23.84
2024-03-24T04:30:29.564Z,23.85
2024-03-24T04:31:29.620Z,23.86
2024-03-24T04:32:29.731Z,23.85
2024-03-24T04:33:29.842Z,23.88
2024-03-24T04:34:29.872Z,23.84
2024-03-24T04:35:30.037Z,23.85
2024-03-24T04:36:30.104Z,23.85
2024-03-24T04:37:30.196Z,23.81
2024-03-24T04:38:30.266Z,23.83
2024-03-24T04:39:30.307Z,23.83
2024-03-24T04:40:30.406Z,23.82
2024-03-24T04:41:37.697Z,23.85
2024-03-24T04:42:37.676Z,23.83
2024-03-24T04:43:37.680Z,23.76
2024-03-24T04:44:37.686Z,23.78
2024-03-24T04:45:37.696Z,23.78
2024-03-24T04:46:37.669Z,23.80
2024-03-24T04:47:37.672Z,23.79
2024-03-24T04:48:37.676Z,23.87
2024-03-24T04:49:37.676Z,23.83
2024-03-24T04:50:37.692Z,23.86
2024-03-24T04:51:37.668Z,23.86
2024-03-24T04:52:37.682Z,23.83
2024-03-24T04:53:37.712Z,23.77
2024-03-24T04:54:37.704Z,23.78
2024-03-24T04:55:37.692Z,23.75
2024-03-24T04:56:37.682Z,23.77
2024-03-24T04:57:37.703Z,23.76
2024-03-24T04:58:37.722Z,23.76
2024-03-24T04:59:37.696Z,23.75
2024-03-24T05:00:37.704Z,23.74
2024-03-24T05:01:37.699Z,23.80
2024-03-24T05:02:37.723Z,23.81
2024-03-24T05:03:37.687Z,23.78
2024-03-24T05:04:37.720Z,23.75
2024-03-24T05:05:37.725Z,23.82
2024-03-24T05:06:37.700Z,23.80
2024-03-24T05:07:37.708Z,23.72
2024-03-24T05:08:37.757Z,23.73
2024-03-24T05:09:37.701Z,23.74
2024-03-24T05:10:37.704Z,23.75
2024-03-24T05:11:37.718Z,23.72
2024-03-24T05:12:37.708Z,23.71
2024-03-24T05:13:37.731Z,23.73
2024-03-24T05:14:37.744Z,23.76
2024-03-24T05:15:37.744Z,23.75
2024-03-24T05:16:37.764Z,23.78
2024-03-24T05:17:37.742Z,23.77
2024-03-24T05:18:37.751Z,23.74
2024-03-24T05:19:37.730Z,23.75
2024-03-24T05:20:37.727Z,23.73
2024-03-24T05:21:37.735Z,23.72
2024-03-24T05:22:37.751Z,23.72
2024-03-24T05:23:37.751Z,23.71
2024-03-24T05:24:37.722Z,23.72
2024-03-24T05:25:37.742Z,23.69
2024-03-24T05:26:37.738Z,23.69
2024-03-24T05:27:37.730Z,23.68
2024-03-24T05:28:46.536Z,23.68
2024-03-24T05:29:38.772Z,23.74
2024-03-24T05:30:37.751Z,23.76
2024-03-24T05:31:37.748Z,23.81
2024-03-24T05:32:37.740Z,23.74
2024-03-24T05:33:37.821Z,23.85
2024-03-24T05:34:37.821Z,23.83
2024-03-24T05:35:37.807Z,23.78
2024-03-24T05:36:37.807Z,23.80
2024-03-24T05:37:37.822Z,23.73
2024-03-24T05:38:37.799Z,23.75
2024-03-24T05:39:38.842Z,23.70
2024-03-24T05:40:37.918Z,23.72
2024-03-24T05:41:37.972Z,23.73
2024-03-24T05:42:37.977Z,23.74
2024-03-24T05:43:38.041Z,23.76
2024-03-24T05:44:38.108Z,23.74
2024-03-24T05:45:38.105Z,23.76
2024-03-24T05:46:38.140Z,23.79
2024-03-24T05:47:38.187Z,23.83
2024-03-24T05:48:38.236Z,23.78
2024-03-24T05:49:38.321Z,23.77
2024-03-24T05:50:38.374Z,23.75
2024-03-24T05:51:38.462Z,23.73
2024-03-24T05:52:38.526Z,23.76
2024-03-24T05:53:38.609Z,23.77
2024-03-24T05:54:38.712Z,23.84
2024-03-24T05:55:38.791Z,23.74
2024-03-24T05:56:38.887Z,23.72
2024-03-24T05:57:38.949Z,23.69
2024-03-24T05:58:39.043Z,23.69
2024-03-24T05:59:39.125Z,23.67
2024-03-24T06:00:39.196Z,23.73
2024-03-24T06:01:40.098Z,23.71
2024-03-24T06:02:39.361Z,23.71
2024-03-24T06:03:39.412Z,23.71
2024-03-24T06:04:39.475Z,23.69
2024-03-24T06:05:39.504Z,23.69
2024-03-24T06:06:39.546Z,23.70
2024-03-24T06:07:39.580Z,23.71
2024-03-24T06:08:39.618Z,23.82
2024-03-24T06:09:39.676Z,23.79
2024-03-24T06:10:39.760Z,23.74
2024-03-24T06:11:39.821Z,23.67
2024-03-24T06:12:39.835Z,23.68
2024-03-24T06:13:39.863Z,23.68
2024-03-24T06:14:39.981Z,23.68
2024-03-24T06:15:40.059Z,23.67
2024-03-24T06:16:40.103Z,23.66
2024-03-24T06:17:40.232Z,23.69
2024-03-24T06:18:40.299Z,23.68
2024-03-24T06:19:40.392Z,23.69
2024-03-24T06:20:40.446Z,23.71
2024-03-24T06:21:40.549Z,23.72
2024-03-24T06:22:40.654Z,23.73
2024-03-24T06:23:40.718Z,23.74
2024-03-24T06:24:40.785Z,23.73
2024-03-24T06:25:40.870Z,23.72
2024-03-24T06:26:40.971Z,23.73
2024-03-24T06:27:41.076Z,23.73
2024-03-24T06:28:41.166Z,23.74
2024-03-24T06:29:41.205Z,23.74
2024-03-24T06:30:41.330Z,23.75
2024-03-24T06:31:43.850Z,23.73
2024-03-24T06:32:41.397Z,23.77
2024-03-24T06:33:41.394Z,23.74
2024-03-24T06:34:41.410Z,23.73
2024-03-24T06:35:41.420Z,23.74
2024-03-24T06:36:41.381Z,23.74
2024-03-24T06:37:41.398Z,23.73
2024-03-24T06:38:41.390Z,23.74
2024-03-24T06:39:41.395Z,23.71
2024-03-24T06:40:41.391Z,23.73
2024-03-24T06:41:41.410Z,23.75
2024-03-24T06:42:41.385Z,23.75
2024-03-24T06:43:41.404Z,23.81
2024-03-24T06:44:41.425Z,23.79
2024-03-24T06:45:41.419Z,23.78
2024-03-24T06:46:41.411Z,23.78
2024-03-24T06:47:41.446Z,23.78
2024-03-24T06:48:41.430Z,23.76
2024-03-24T06:49:41.479Z,23.79
2024-03-24T06:50:41.415Z,23.85
2024-03-24T06:51:41.423Z,23.83
2024-03-24T06:52:41.440Z,23.84
2024-03-24T06:53:41.428Z,23.82
2024-03-24T06:54:41.451Z,23.78
2024-03-24T06:55:41.458Z,23.79
2024-03-24T06:56:41.454Z,23.77
2024-03-24T06:57:41.461Z,23.77
2024-03-24T06:58:41.465Z,23.77
2024-03-24T06:59:41.433Z,23.77
2024-03-24T07:00:41.471Z,23.82
2024-03-24T07:01:41.444Z,23.75
2024-03-24T07:02:41.452Z,23.76
2024-03-24T07:03:41.515Z,23.74
2024-03-24T07:04:41.554Z,23.76
2024-03-24T07:05:41.660Z,23.77
2024-03-24T07:06:41.728Z,23.77
2024-03-24T07:07:41.831Z,23.79
2024-03-24T07:08:41.910Z,23.82
2024-03-24T07:09:41.985Z,23.82
2024-03-24T07:10:42.118Z,23.79
2024-03-24T07:11:42.204Z,23.80
2024-03-24T07:12:42.305Z,23.82
2024-03-24T07:13:42.355Z,23.83
2024-03-24T07:14:42.423Z,23.84
2024-03-24T07:15:42.619Z,23.86
2024-03-24T07:16:42.629Z,23.95
2024-03-24T07:17:42.777Z,23.93
2024-03-24T07:18:42.789Z,23.83
2024-03-24T07:19:42.871Z,23.80
2024-03-24T07:20:42.962Z,23.82
2024-03-24T07:21:43.057Z,23.82
2024-03-24T07:22:43.227Z,23.81
2024-03-24T07:23:43.321Z,23.82
2024-03-24T07:24:43.417Z,23.78
2024-03-24T07:25:43.492Z,23.82
2024-03-24T07:26:43.555Z,23.82
2024-03-24T07:27:43.667Z,23.82
2024-03-24T07:28:43.801Z,23.84
2024-03-24T07:29:43.834Z,23.84
2024-03-24T07:30:43.933Z,23.86
2024-03-24T07:31:44.052Z,23.82
2024-03-24T07:32:44.118Z,23.82
2024-03-24T07:33:44.223Z,23.82
2024-03-24T07:34:44.294Z,23.81
2024-03-24T07:35:44.376Z,23.77
2024-03-24T07:36:44.469Z,23.83
2024-03-24T07:37:44.561Z,23.77
2024-03-24T07:38:44.667Z,23.76
2024-03-24T07:39:44.734Z,23.77
2024-03-24T07:40:44.869Z,23.78
2024-03-24T07:41:47.720Z,23.80
2024-03-24T07:42:44.998Z,23.78
2024-03-24T07:43:44.976Z,23.76
2024-03-24T07:44:44.994Z,23.74
2024-03-24T07:45:44.990Z,23.75
2024-03-24T07:46:44.982Z,23.75
2024-03-24T07:47:44.989Z,23.81
2024-03-24T07:49:45.000Z,23.79
2024-03-24T07:50:44.972Z,23.76
2024-03-24T07:51:44.995Z,23.74
2024-03-24T07:52:44.983Z,23.83
2024-03-24T07:53:44.991Z,23.80
2024-03-24T07:54:44.986Z,23.73
2024-03-24T07:55:44.999Z,23.75
2024-03-24T07:56:45.030Z,23.73
2024-03-24T07:57:45.001Z,23.70
2024-03-24T07:58:45.007Z,23.73
2024-03-24T07:59:44.990Z,23.71
2024-03-24T08:00:45.020Z,23.76
2024-03-24T08:01:45.002Z,23.74
2024-03-24T08:02:45.034Z,23.77
2024-03-24T08:03:45.015Z,23.84
2024-03-24T08:04:45.010Z,23.83
2024-03-24T08:05:45.023Z,23.81
2024-03-24T08:06:45.039Z,23.79
2024-03-24T08:07:45.026Z,23.82
2024-03-24T08:08:45.097Z,23.74
2024-03-24T08:09:45.032Z,23.70
2024-03-24T08:10:45.091Z,23.71
2024-03-24T08:11:45.035Z,23.71
2024-03-24T08:12:45.039Z,23.69
2024-03-24T08:13:45.047Z,23.68
2024-03-24T08:14:45.052Z,23.65
2024-03-24T08:15:45.038Z,23.68
2024-03-24T08:16:45.024Z,23.74
2024-03-24T08:17:45.043Z,23.76
2024-03-24T08:18:45.055Z,23.81
2024-03-24T08:19:45.050Z,23.78
2024-03-24T08:20:45.107Z,23.77
2024-03-24T08:21:45.120Z,23.79
2024-03-24T08:22:45.147Z,23.77
2024-03-24T08:23:45.205Z,23.72
2024-03-24T08:24:45.248Z,23.71
2024-03-24T08:25:45.306Z,23.75
2024-03-24T08:26:45.436Z,23.75
2024-03-24T08:27:45.493Z,23.72
2024-03-24T08:28:45.614Z,23.79
2024-03-24T08:29:45.709Z,23.74
2024-03-24T08:30:45.751Z,23.70
2024-03-24T08:31:45.843Z,23.69
2024-03-24T08:32:45.931Z,23.71
2024-03-24T08:33:46.038Z,23.70
2024-03-24T08:34:46.148Z,23.69
2024-03-24T08:35:46.238Z,23.81
2024-03-24T08:36:46.305Z,23.76
2024-03-24T08:37:46.427Z,23.74
2024-03-24T08:38:46.481Z,23.73
2024-03-24T08:39:46.530Z,23.72
2024-03-24T08:40:46.636Z,23.73
2024-03-24T08:41:46.809Z,23.71
2024-03-24T08:42:46.819Z,23.71
2024-03-24T08:43:46.912Z,23.70
2024-03-24T08:44:47.016Z,23.73
2024-03-24T08:45:47.102Z,23.72
2024-03-24T08:46:47.201Z,23.78
2024-03-24T08:47:47.288Z,23.79
2024-03-24T08:48:47.429Z,23.77
2024-03-24T08:49:47.460Z,23.74
2024-03-24T08:50:47.573Z,23.74
2024-03-24T08:51:47.628Z,23.74
2024-03-24T08:52:47.724Z,23.72
2024-03-24T08:53:47.824Z,23.72
2024-03-24T08:54:47.917Z,23.86
2024-03-24T08:55:47.999Z,23.82
2024-03-24T08:56:48.087Z,23.76
2024-03-24T08:57:48.193Z,23.79
2024-03-24T08:58:48.297Z,23.76
2024-03-24T08:59:48.366Z,23.72
2024-03-24T09:00:48.463Z,23.74
2024-03-24T09:01:48.565Z,23.74
2024-03-24T09:02:48.633Z,23.76
2024-03-24T09:03:48.703Z,23.83
2024-03-24T09:04:48.796Z,23.77
2024-03-24T09:05:48.889Z,23.78
2024-03-24T09:06:48.960Z,23.79
2024-03-24T09:07:49.092Z,23.73
2024-03-24T09:08:49.183Z,23.79
2024-03-24T09:09:49.264Z,23.75
2024-03-24T09:10:49.362Z,23.74
2024-03-24T09:11:49.445Z,23.77
2024-03-24T09:12:49.511Z,23.73
2024-03-24T09:13:49.631Z,23.75
2024-03-24T09:14:49.710Z,23.75
2024-03-24T09:15:49.787Z,23.80
2024-03-24T09:16:49.860Z,23.82
2024-03-24T09:17:49.956Z,23.90
2024-03-24T09:18:50.042Z,23.78
2024-03-24T09:19:50.139Z,23.78
2024-03-24T09:20:50.184Z,23.77
2024-03-24T09:21:50.294Z,23.75
2024-03-24T09:22:50.352Z,23.75
2024-03-24T09:23:52.859Z,23.76
2024-03-24T09:24:50.451Z,23.80
2024-03-24T09:25:50.473Z,23.85
2024-03-24T09:26:50.463Z,23.83
2024-03-24T09:27:50.475Z,23.77
2024-03-24T09:28:50.477Z,23.77
2024-03-24T09:29:50.478Z,23.77
2024-03-24T09:30:50.502Z,23.85
2024-03-24T09:31:50.479Z,23.85
2024-03-24T09:32:50.467Z,23.80
2024-03-24T09:33:50.479Z,23.82
2024-03-24T09:34:53.597Z,23.85
2024-03-24T09:35:51.485Z,23.85
2024-03-24T09:36:50.504Z,23.81
2024-03-24T09:37:50.508Z,23.82
2024-03-24T09:38:50.496Z,23.81
2024-03-24T09:39:50.490Z,23.77
2024-03-24T09:40:50.537Z,23.78
2024-03-24T09:41:50.541Z,23.78
2024-03-24T09:42:50.548Z,23.82
2024-03-24T09:43:50.536Z,23.81
2024-03-24T09:44:50.591Z,23.84
2024-03-24T09:45:50.553Z,23.82
2024-03-24T09:46:50.618Z,23.81
2024-03-24T09:47:50.724Z,23.85
2024-03-24T09:48:50.777Z,23.82
2024-03-24T09:49:50.850Z,23.80
2024-03-24T09:50:50.962Z,23.77
2024-03-24T09:51:51.023Z,23.86
2024-03-24T09:52:51.113Z,23.91
2024-03-24T09:53:51.172Z,23.85
2024-03-24T09:54:51.272Z,23.87
2024-03-24T09:55:51.350Z,23.91
2024-03-24T09:56:51.455Z,23.86
2024-03-24T09:57:57.182Z,23.81
2024-03-24T09:58:52.542Z,23.81
2024-03-24T09:59:51.524Z,23.81
2024-03-24T10:00:51.528Z,23.82
2024-03-24T10:01:51.534Z,23.79
2024-03-24T10:02:51.543Z,23.79
2024-03-24T10:03:51.550Z,23.81
2024-03-24T10:04:51.544Z,23.77
2024-03-24T10:05:51.547Z,23.84
2024-03-24T10:06:51.551Z,23.86
2024-03-24T10:07:51.529Z,23.85
2024-03-24T10:08:51.598Z,23.87
2024-03-24T10:09:51.690Z,23.84
2024-03-24T10:10:51.806Z,23.82
2024-03-24T10:11:51.882Z,23.79
2024-03-24T10:12:51.937Z,23.81
2024-03-24T10:13:52.103Z,23.79
2024-03-24T10:14:52.171Z,23.74
2024-03-24T10:15:52.240Z,23.80
2024-03-24T10:16:52.301Z,23.77
2024-03-24T10:17:52.427Z,23.81
2024-03-24T10:18:52.492Z,23.79
2024-03-24T10:19:52.603Z,23.85
2024-03-24T10:20:52.712Z,23.84
2024-03-24T10:21:52.889Z,23.87
2024-03-24T10:22:52.891Z,23.86
2024-03-24T10:23:52.978Z,23.89
2024-03-24T10:24:53.074Z,23.86
2024-03-24T10:25:53.166Z,23.88
2024-03-24T10:26:53.247Z,23.88
2024-03-24T10:27:53.332Z,23.89
2024-03-24T10:28:53.422Z,23.87
2024-03-24T10:29:53.519Z,23.88
2024-03-24T10:30:53.592Z,23.89
2024-03-24T10:31:53.692Z,23.89
2024-03-24T10:32:53.784Z,23.87
2024-03-24T10:33:53.853Z,23.87
2024-03-24T10:34:53.943Z,23.85
2024-03-24T10:35:54.068Z,23.86
2024-03-24T10:36:54.110Z,23.85
2024-03-24T10:37:54.224Z,23.86
2024-03-24T10:38:54.331Z,23.87
2024-03-24T10:39:54.369Z,23.84
2024-03-24T10:40:55.114Z,23.84
2024-03-24T10:41:54.552Z,23.86
2024-03-24T10:42:54.562Z,23.87
2024-03-24T10:43:54.597Z,23.86
2024-03-24T10:44:54.674Z,23.87
2024-03-24T10:45:54.675Z,23.84
2024-03-24T10:46:54.750Z,23.90
2024-03-24T10:47:54.777Z,23.87
2024-03-24T10:48:54.808Z,23.92
2024-03-24T10:49:54.841Z,23.86
2024-03-24T10:50:54.879Z,23.91
2024-03-24T10:51:54.923Z,23.88
2024-03-24T10:52:56.238Z,23.92
2024-03-24T10:53:55.113Z,23.91
2024-03-24T10:54:55.171Z,23.90
2024-03-24T10:55:55.166Z,23.89
2024-03-24T10:56:55.188Z,23.90
2024-03-24T10:57:55.243Z,23.89
2024-03-24T10:58:55.319Z,23.92
2024-03-24T10:59:55.354Z,23.88
2024-03-24T11:00:55.359Z,23.88
2024-03-24T11:01:55.420Z,23.84
2024-03-24T11:02:55.432Z,23.85
2024-03-24T11:03:55.490Z,23.90
2024-03-24T11:04:55.529Z,23.86
2024-03-24T11:05:55.549Z,23.86
2024-03-24T11:06:55.647Z,23.87
2024-03-24T11:07:55.762Z,23.91
2024-03-24T11:08:55.835Z,23.83
2024-03-24T11:09:55.940Z,23.90
2024-03-24T11:10:56.045Z,23.91
2024-03-24T11:11:56.146Z,23.90
2024-03-24T11:12:56.223Z,23.89
2024-03-24T11:13:56.333Z,23.90
2024-03-24T11:14:56.419Z,23.88
2024-03-24T11:15:56.530Z,23.91
2024-03-24T11:16:56.619Z,23.89
2024-03-24T11:17:56.743Z,23.87
2024-03-24T11:18:57.271Z,23.86
2024-03-24T11:19:56.966Z,23.88
2024-03-24T11:20:57.084Z,23.85
2024-03-24T11:21:57.147Z,23.86
2024-03-24T11:22:57.252Z,23.88
2024-03-24T11:23:57.304Z,23.91
2024-03-24T11:24:57.407Z,23.92
2024-03-24T11:25:57.524Z,23.91
2024-03-24T11:26:57.622Z,23.92
2024-03-24T11:27:57.735Z,23.90
2024-03-24T11:28:57.839Z,23.91
2024-03-24T11:29:57.909Z,23.90
2024-03-24T11:30:58.018Z,23.89
2024-03-24T11:31:58.105Z,23.90
2024-03-24T11:32:58.176Z,23.87
2024-03-24T11:33:58.292Z,23.87
2024-03-24T11:34:58.419Z,23.85
2024-03-24T11:35:58.466Z,23.88
2024-03-24T11:36:58.572Z,23.87
2024-03-24T11:37:58.685Z,23.88
2024-03-24T11:38:58.754Z,23.87
2024-03-24T11:39:58.902Z,23.90
2024-03-24T11:40:58.979Z,23.88
2024-03-24T11:41:59.071Z,23.87
2024-03-24T11:42:59.176Z,23.86
2024-03-24T11:43:59.289Z,23.88
2024-03-24T11:44:59.391Z,23.85
2024-03-24T11:45:59.494Z,23.80
2024-03-24T11:46:59.609Z,23.86
2024-03-24T11:47:59.681Z,23.84
2024-03-24T11:48:59.762Z,23.87
2024-03-24T11:49:59.886Z,23.84
2024-03-24T11:50:59.955Z,23.86
2024-03-24T11:52:00.085Z,23.84
2024-03-24T11:53:00.177Z,23.79
2024-03-24T11:54:00.268Z,23.80
2024-03-24T11:55:00.375Z,23.80
2024-03-24T11:56:00.486Z,23.77
2024-03-24T11:57:00.575Z,23.70
2024-03-24T11:58:00.667Z,23.81
2024-03-24T11:59:00.764Z,23.78
2024-03-24T12:00:00.877Z,23.75
2024-03-24T12:01:00.978Z,23.77
2024-03-24T12:02:01.043Z,23.74
2024-03-24T12:03:01.171Z,23.76
2024-03-24T12:04:01.247Z,23.75
2024-03-24T12:05:01.442Z,23.72
2024-03-24T12:06:01.497Z,23.76
2024-03-24T12:07:01.545Z,23.76
2024-03-24T12:08:01.650Z,23.74
2024-03-24T12:09:01.747Z,23.75
2024-03-24T12:10:01.887Z,23.73
2024-03-24T12:11:01.975Z,23.71
2024-03-24T12:12:02.045Z,23.63
2024-03-24T12:13:02.196Z,23.61
2024-03-24T12:14:02.300Z,23.62
2024-03-24T12:15:02.410Z,23.63
2024-03-24T12:16:02.517Z,23.64
2024-03-24T12:17:02.600Z,23.65
2024-03-24T12:18:02.686Z,23.67
2024-03-24T12:19:02.807Z,23.68
2024-03-24T12:20:02.931Z,23.67
2024-03-24T12:21:03.995Z,23.63
2024-03-24T12:22:03.135Z,23.59
2024-03-24T12:23:03.208Z,23.65
2024-03-24T12:24:03.291Z,23.65
2024-03-24T12:25:03.407Z,23.68
2024-03-24T12:26:03.517Z,23.65
2024-03-24T12:27:03.571Z,23.65
2024-03-24T12:28:03.694Z,23.62
2024-03-24T12:29:03.771Z,23.62
2024-03-24T12:30:03.827Z,23.59
2024-03-24T12:31:03.912Z,23.65
2024-03-24T12:32:04.026Z,23.66
2024-03-24T12:33:04.087Z,23.69
2024-03-24T12:34:04.180Z,23.61
2024-03-24T12:35:04.294Z,23.50
2024-03-24T12:36:04.392Z,23.47
2024-03-24T12:37:04.507Z,23.46
2024-03-24T12:38:04.573Z,23.11
2024-03-24T12:39:04.658Z,22.50
2024-03-24T12:40:04.776Z,22.45
2024-03-24T12:41:04.902Z,22.41
2024-03-24T12:42:04.957Z,22.26
2024-03-24T12:43:05.022Z,22.34
2024-03-24T12:44:05.092Z,22.31
2024-03-24T12:45:05.213Z,22.08
2024-03-24T12:46:05.256Z,22.06
2024-03-24T12:47:05.348Z,22.05
2024-03-24T12:48:05.396Z,21.93
2024-03-24T12:49:05.514Z,21.96
2024-03-24T12:50:17.373Z,21.82
2024-03-24T12:51:06.619Z,21.80
2024-03-24T12:52:05.595Z,22.12
2024-03-24T12:53:05.639Z,21.72
2024-03-24T12:54:05.612Z,21.52